This is the latest recevied weather packets stored in our database for station/object NK2J. If no packets are shown the sender has not sent any weather packets the latest 1 day(s).
| Time | Temp. | Humidity | Pressure | Rain* | Wind** | Luminosity | Snow |
|---|---|---|---|---|---|---|---|
| 1778029419 | 23.89° C | 26% | 1011.8 hPa | 0 mm | 3.58 m/s, 131° | 56 W/m² | - |
| 1778029115 | 23.33° C | 26% | 1011.7 hPa | 0 mm | 2.68 m/s, 111° | 53 W/m² | - |
| 1778028812 | 23.33° C | 26% | 1011.6 hPa | 0 mm | 1.34 m/s, 58° | 55 W/m² | - |
| 1778028508 | 23.89° C | 27% | 1011.6 hPa | 0 mm | 1.79 m/s, 69° | 54 W/m² | - |
| 1778028206 | 23.89° C | 27% | 1011.6 hPa | 0 mm | 0.89 m/s, 81° | 74 W/m² | - |
| 1778027902 | 23.89° C | 26% | 1011.7 hPa | 0 mm | 0.89 m/s, 44° | 164 W/m² | - |
| 1778027598 | 24.44° C | 25% | 1011.6 hPa | 0 mm | 1.34 m/s, 57° | 198 W/m² | - |
| 1778027294 | 24.44° C | 27% | 1011.5 hPa | 0 mm | 1.34 m/s, 107° | 210 W/m² | - |
| 1778026991 | 24.44° C | 26% | 1011.5 hPa | 0 mm | 1.79 m/s, 118° | 222 W/m² | - |
| 1778026687 | 23.89° C | 27% | 1011.5 hPa | 0 mm | 1.79 m/s, 93° | 242 W/m² | - |
| 1778026384 | 23.89° C | 26% | 1011.3 hPa | 0 mm | 0.89 m/s, 60° | 247 W/m² | - |
| 1778026081 | 23.89° C | 27% | 1011.3 hPa | 0 mm | 3.13 m/s, 118° | 222 W/m² | - |
| 1778025779 | 23.89° C | 27% | 1011.5 hPa | 0 mm | 1.79 m/s, 94° | 279 W/m² | - |
| 1778025475 | 23.89° C | 27% | 1011.6 hPa | 0 mm | 4.92 m/s, 125° | 82 W/m² | - |
| 1778025173 | 24.44° C | 26% | 1011.4 hPa | 0 mm | 3.58 m/s, 109° | 281 W/m² | - |
| 1778024869 | 24.44° C | 26% | 1011.3 hPa | 0 mm | 0.45 m/s, 47° | 303 W/m² | - |
| 1778024567 | 23.89° C | 27% | 1011.5 hPa | 0 mm | 1.79 m/s, 109° | 325 W/m² | - |
| 1778024263 | 24.44° C | 27% | 1011.4 hPa | 0 mm | 1.34 m/s, 107° | 71 W/m² | - |
| 1778023962 | 24.44° C | 27% | 1011.3 hPa | 0 mm | 0.89 m/s, 44° | 343 W/m² | - |
| 1778023658 | 24.44° C | 26% | 1011.2 hPa | 0 mm | 0.89 m/s, 76° | 358 W/m² | - |
| 1778023356 | 24.44° C | 28% | 1011.4 hPa | 0 mm | 0 m/s | 368 W/m² | - |
| 1778023052 | 25° C | 27% | 1011.3 hPa | 0 mm | 2.68 m/s, 99° | 377 W/m² | - |
| 1778022752 | 24.44° C | 28% | 1011.2 hPa | 0 mm | 1.34 m/s, 24° | 284 W/m² | - |
| 1778022449 | 25° C | 27% | 1011.4 hPa | 0 mm | 0.89 m/s, 350° | 417 W/m² | - |
| 1778022146 | 25° C | 27% | 1011.2 hPa | 0 mm | 0 m/s | 443 W/m² | - |
* Rain latest hour (hover to see other rain measurements)
** Current wind speed in m/s (hover to see current wind gust speed)